sensor_id;sensor_type;location;lat;lon;timestamp;P1;durP1;ratioP1;P2;durP2;ratioP2
80381;SDS011;69692;55.820;37.490;2023-05-14T00:00:50;5.10;;;2.95;;
80381;SDS011;69692;55.820;37.490;2023-05-14T00:03:16;5.13;;;2.60;;
80381;SDS011;69692;55.820;37.490;2023-05-14T00:05:42;8.90;;;3.15;;
80381;SDS011;69692;55.820;37.490;2023-05-14T00:08:07;4.97;;;2.40;;
80381;SDS011;69692;55.820;37.490;2023-05-14T00:10:33;9.63;;;3.22;;
80381;SDS011;69692;55.820;37.490;2023-05-14T00:12:59;7.78;;;2.75;;
80381;SDS011;69692;55.820;37.490;2023-05-14T00:15:25;5.10;;;2.30;;
80381;SDS011;69692;55.820;37.490;2023-05-14T00:17:51;7.85;;;3.05;;
80381;SDS011;69692;55.820;37.490;2023-05-14T00:20:17;6.53;;;3.22;;
80381;SDS011;69692;55.820;37.490;2023-05-14T00:22:42;6.18;;;2.80;;
80381;SDS011;69692;55.820;37.490;2023-05-14T00:25:08;12.98;;;2.80;;
80381;SDS011;69692;55.820;37.490;2023-05-14T00:27:34;7.13;;;2.63;;
80381;SDS011;69692;55.820;37.490;2023-05-14T00:30:03;7.90;;;2.75;;
80381;SDS011;69692;55.820;37.490;2023-05-14T00:32:30;3.97;;;2.13;;
80381;SDS011;69692;55.820;37.490;2023-05-14T00:34:56;9.88;;;3.10;;
80381;SDS011;69692;55.820;37.490;2023-05-14T00:37:22;5.13;;;3.08;;
80381;SDS011;69692;55.820;37.490;2023-05-14T00:39:48;6.18;;;2.58;;
80381;SDS011;69692;55.820;37.490;2023-05-14T00:42:13;8.77;;;2.83;;
80381;SDS011;69692;55.820;37.490;2023-05-14T00:44:39;7.85;;;3.08;;
80381;SDS011;69692;55.820;37.490;2023-05-14T00:47:05;6.97;;;2.72;;
80381;SDS011;69692;55.820;37.490;2023-05-14T00:49:31;7.22;;;2.95;;
80381;SDS011;69692;55.820;37.490;2023-05-14T00:51:57;8.88;;;3.13;;
80381;SDS011;69692;55.820;37.490;2023-05-14T00:54:24;4.85;;;3.25;;
80381;SDS011;69692;55.820;37.490;2023-05-14T00:56:52;7.57;;;2.58;;
80381;SDS011;69692;55.820;37.490;2023-05-14T00:59:19;7.15;;;2.72;;
80381;SDS011;69692;55.820;37.490;2023-05-14T01:01:45;3.92;;;2.33;;
80381;SDS011;69692;55.820;37.490;2023-05-14T01:04:10;4.95;;;2.28;;
80381;SDS011;69692;55.820;37.490;2023-05-14T01:06:45;7.93;;;2.70;;
80381;SDS011;69692;55.820;37.490;2023-05-14T01:12:00;6.35;;;2.58;;
80381;SDS011;69692;55.820;37.490;2023-05-14T01:17:31;6.20;;;2.65;;
80381;SDS011;69692;55.820;37.490;2023-05-14T01:22:28;4.35;;;2.58;;
80381;SDS011;69692;55.820;37.490;2023-05-14T01:24:54;4.03;;;2.55;;
80381;SDS011;69692;55.820;37.490;2023-05-14T01:30:13;6.43;;;3.25;;
80381;SDS011;69692;55.820;37.490;2023-05-14T01:32:42;9.65;;;2.95;;
80381;SDS011;69692;55.820;37.490;2023-05-14T01:35:12;3.58;;;2.67;;
80381;SDS011;69692;55.820;37.490;2023-05-14T01:37:39;5.05;;;3.13;;
80381;SDS011;69692;55.820;37.490;2023-05-14T01:40:07;4.05;;;2.38;;
80381;SDS011;69692;55.820;37.490;2023-05-14T01:42:34;5.28;;;2.70;;
80381;SDS011;69692;55.820;37.490;2023-05-14T01:45:01;6.75;;;3.40;;
80381;SDS011;69692;55.820;37.490;2023-05-14T01:47:29;8.20;;;2.88;;
80381;SDS011;69692;55.820;37.490;2023-05-14T01:49:55;5.28;;;3.03;;
80381;SDS011;69692;55.820;37.490;2023-05-14T01:52:20;6.75;;;3.00;;
80381;SDS011;69692;55.820;37.490;2023-05-14T01:54:46;5.30;;;3.33;;
80381;SDS011;69692;55.820;37.490;2023-05-14T01:57:12;7.15;;;3.20;;
80381;SDS011;69692;55.820;37.490;2023-05-14T01:59:38;6.88;;;3.05;;
80381;SDS011;69692;55.820;37.490;2023-05-14T02:02:04;3.75;;;2.63;;
80381;SDS011;69692;55.820;37.490;2023-05-14T02:04:30;8.43;;;2.55;;
80381;SDS011;69692;55.820;37.490;2023-05-14T02:06:56;4.72;;;3.33;;
80381;SDS011;69692;55.820;37.490;2023-05-14T02:09:23;5.65;;;2.72;;
80381;SDS011;69692;55.820;37.490;2023-05-14T02:11:48;5.32;;;2.80;;
80381;SDS011;69692;55.820;37.490;2023-05-14T02:14:14;6.45;;;3.17;;
80381;SDS011;69692;55.820;37.490;2023-05-14T02:16:40;6.20;;;2.92;;
80381;SDS011;69692;55.820;37.490;2023-05-14T02:19:06;5.53;;;3.05;;
80381;SDS011;69692;55.820;37.490;2023-05-14T02:21:52;4.97;;;2.65;;
80381;SDS011;69692;55.820;37.490;2023-05-14T02:24:17;5.35;;;2.80;;
80381;SDS011;69692;55.820;37.490;2023-05-14T02:26:43;4.38;;;2.47;;
80381;SDS011;69692;55.820;37.490;2023-05-14T02:29:09;9.07;;;2.90;;
80381;SDS011;69692;55.820;37.490;2023-05-14T02:31:34;6.88;;;3.42;;
80381;SDS011;69692;55.820;37.490;2023-05-14T02:34:02;6.25;;;2.60;;
80381;SDS011;69692;55.820;37.490;2023-05-14T02:36:28;5.90;;;2.67;;
80381;SDS011;69692;55.820;37.490;2023-05-14T02:38:55;8.50;;;2.65;;
80381;SDS011;69692;55.820;37.490;2023-05-14T02:41:23;4.60;;;2.78;;
80381;SDS011;69692;55.820;37.490;2023-05-14T02:43:51;10.93;;;2.78;;
80381;SDS011;69692;55.820;37.490;2023-05-14T02:46:17;4.13;;;2.05;;
80381;SDS011;69692;55.820;37.490;2023-05-14T02:48:42;6.85;;;2.92;;
80381;SDS011;69692;55.820;37.490;2023-05-14T02:51:08;7.07;;;3.10;;
80381;SDS011;69692;55.820;37.490;2023-05-14T02:53:34;8.30;;;4.18;;
80381;SDS011;69692;55.820;37.490;2023-05-14T02:56:00;5.38;;;2.60;;
80381;SDS011;69692;55.820;37.490;2023-05-14T02:58:26;6.63;;;3.25;;
80381;SDS011;69692;55.820;37.490;2023-05-14T03:00:51;16.70;;;3.25;;
80381;SDS011;69692;55.820;37.490;2023-05-14T03:03:17;9.63;;;3.08;;
80381;SDS011;69692;55.820;37.490;2023-05-14T03:05:43;10.43;;;3.08;;
80381;SDS011;69692;55.820;37.490;2023-05-14T03:08:09;4.80;;;2.38;;
80381;SDS011;69692;55.820;37.490;2023-05-14T03:10:35;10.32;;;2.72;;
80381;SDS011;69692;55.820;37.490;2023-05-14T03:13:01;6.35;;;2.60;;
80381;SDS011;69692;55.820;37.490;2023-05-14T03:15:27;4.05;;;2.47;;
80381;SDS011;69692;55.820;37.490;2023-05-14T03:17:52;4.10;;;2.75;;
80381;SDS011;69692;55.820;37.490;2023-05-14T03:20:18;4.47;;;2.28;;
80381;SDS011;69692;55.820;37.490;2023-05-14T03:22:44;4.32;;;2.13;;
80381;SDS011;69692;55.820;37.490;2023-05-14T03:25:10;4.18;;;2.15;;
80381;SDS011;69692;55.820;37.490;2023-05-14T03:27:36;3.17;;;1.98;;
80381;SDS011;69692;55.820;37.490;2023-05-14T03:30:02;3.15;;;2.55;;
80381;SDS011;69692;55.820;37.490;2023-05-14T03:32:29;5.03;;;2.78;;
80381;SDS011;69692;55.820;37.490;2023-05-14T03:34:55;3.85;;;2.53;;
80381;SDS011;69692;55.820;37.490;2023-05-14T03:37:20;6.03;;;2.78;;
80381;SDS011;69692;55.820;37.490;2023-05-14T03:39:46;5.40;;;2.40;;
80381;SDS011;69692;55.820;37.490;2023-05-14T03:42:12;3.40;;;1.92;;
80381;SDS011;69692;55.820;37.490;2023-05-14T03:44:37;6.15;;;2.92;;
80381;SDS011;69692;55.820;37.490;2023-05-14T03:47:03;4.60;;;2.70;;
80381;SDS011;69692;55.820;37.490;2023-05-14T03:49:29;4.82;;;2.28;;
80381;SDS011;69692;55.820;37.490;2023-05-14T03:51:55;4.72;;;2.72;;
80381;SDS011;69692;55.820;37.490;2023-05-14T03:54:24;4.72;;;2.85;;
80381;SDS011;69692;55.820;37.490;2023-05-14T03:56:50;3.60;;;1.75;;
80381;SDS011;69692;55.820;37.490;2023-05-14T03:59:16;5.03;;;2.20;;
80381;SDS011;69692;55.820;37.490;2023-05-14T04:01:42;4.40;;;2.40;;
80381;SDS011;69692;55.820;37.490;2023-05-14T04:04:08;3.85;;;2.30;;
80381;SDS011;69692;55.820;37.490;2023-05-14T04:06:34;7.30;;;2.33;;
80381;SDS011;69692;55.820;37.490;2023-05-14T04:09:01;4.93;;;2.92;;
80381;SDS011;69692;55.820;37.490;2023-05-14T04:11:27;4.82;;;2.13;;
80381;SDS011;69692;55.820;37.490;2023-05-14T04:13:53;4.38;;;3.33;;
80381;SDS011;69692;55.820;37.490;2023-05-14T04:16:19;3.30;;;2.65;;
80381;SDS011;69692;55.820;37.490;2023-05-14T04:18:45;3.40;;;2.13;;
80381;SDS011;69692;55.820;37.490;2023-05-14T04:21:10;6.80;;;2.70;;
80381;SDS011;69692;55.820;37.490;2023-05-14T04:23:36;4.88;;;2.65;;
80381;SDS011;69692;55.820;37.490;2023-05-14T04:26:02;5.28;;;2.78;;
80381;SDS011;69692;55.820;37.490;2023-05-14T04:28:29;4.05;;;2.33;;
80381;SDS011;69692;55.820;37.490;2023-05-14T04:30:55;4.28;;;2.70;;
80381;SDS011;69692;55.820;37.490;2023-05-14T04:33:21;3.83;;;2.55;;
80381;SDS011;69692;55.820;37.490;2023-05-14T04:35:46;5.07;;;2.50;;
80381;SDS011;69692;55.820;37.490;2023-05-14T04:38:12;5.93;;;2.80;;
80381;SDS011;69692;55.820;37.490;2023-05-14T04:40:38;3.67;;;1.95;;
80381;SDS011;69692;55.820;37.490;2023-05-14T04:43:05;3.50;;;2.03;;
80381;SDS011;69692;55.820;37.490;2023-05-14T04:45:32;9.32;;;4.07;;
80381;SDS011;69692;55.820;37.490;2023-05-14T04:47:58;2.40;;;1.30;;
80381;SDS011;69692;55.820;37.490;2023-05-14T04:50:24;3.95;;;1.42;;
80381;SDS011;69692;55.820;37.490;2023-05-14T04:52:49;4.20;;;1.52;;
80381;SDS011;69692;55.820;37.490;2023-05-14T04:55:15;2.50;;;1.92;;
80381;SDS011;69692;55.820;37.490;2023-05-14T04:57:41;5.60;;;2.08;;
80381;SDS011;69692;55.820;37.490;2023-05-14T05:00:07;7.85;;;2.20;;
80381;SDS011;69692;55.820;37.490;2023-05-14T05:02:34;6.25;;;2.78;;
80381;SDS011;69692;55.820;37.490;2023-05-14T05:05:01;8.40;;;3.13;;
80381;SDS011;69692;55.820;37.490;2023-05-14T05:07:28;5.32;;;2.50;;
80381;SDS011;69692;55.820;37.490;2023-05-14T05:09:54;9.90;;;2.08;;
80381;SDS011;69692;55.820;37.490;2023-05-14T05:12:20;6.00;;;2.55;;
80381;SDS011;69692;55.820;37.490;2023-05-14T05:14:45;9.40;;;3.35;;
80381;SDS011;69692;55.820;37.490;2023-05-14T05:17:11;4.50;;;2.60;;
80381;SDS011;69692;55.820;37.490;2023-05-14T05:19:37;4.13;;;2.40;;
80381;SDS011;69692;55.820;37.490;2023-05-14T05:22:03;6.43;;;2.25;;
80381;SDS011;69692;55.820;37.490;2023-05-14T05:24:29;5.50;;;2.58;;
80381;SDS011;69692;55.820;37.490;2023-05-14T05:26:55;4.40;;;2.15;;
80381;SDS011;69692;55.820;37.490;2023-05-14T05:29:21;8.13;;;2.58;;
80381;SDS011;69692;55.820;37.490;2023-05-14T05:31:47;4.50;;;1.98;;
80381;SDS011;69692;55.820;37.490;2023-05-14T05:34:13;2.65;;;2.25;;
80381;SDS011;69692;55.820;37.490;2023-05-14T05:36:39;4.53;;;2.00;;
80381;SDS011;69692;55.820;37.490;2023-05-14T05:39:05;4.35;;;2.40;;
80381;SDS011;69692;55.820;37.490;2023-05-14T05:41:31;6.88;;;1.83;;
80381;SDS011;69692;55.820;37.490;2023-05-14T05:43:57;3.80;;;1.75;;
80381;SDS011;69692;55.820;37.490;2023-05-14T05:46:22;5.80;;;2.03;;
80381;SDS011;69692;55.820;37.490;2023-05-14T05:48:48;3.47;;;2.45;;
80381;SDS011;69692;55.820;37.490;2023-05-14T05:51:14;3.53;;;2.05;;
80381;SDS011;69692;55.820;37.490;2023-05-14T05:53:39;2.80;;;2.00;;
80381;SDS011;69692;55.820;37.490;2023-05-14T05:56:05;4.18;;;2.15;;
80381;SDS011;69692;55.820;37.490;2023-05-14T05:58:31;7.90;;;1.95;;
80381;SDS011;69692;55.820;37.490;2023-05-14T06:00:57;3.42;;;2.50;;
80381;SDS011;69692;55.820;37.490;2023-05-14T06:03:23;3.20;;;2.20;;
80381;SDS011;69692;55.820;37.490;2023-05-14T06:05:49;5.57;;;3.30;;
80381;SDS011;69692;55.820;37.490;2023-05-14T06:08:16;5.72;;;2.25;;
80381;SDS011;69692;55.820;37.490;2023-05-14T06:10:43;2.97;;;2.33;;
80381;SDS011;69692;55.820;37.490;2023-05-14T06:13:08;3.65;;;2.03;;
80381;SDS011;69692;55.820;37.490;2023-05-14T06:15:34;6.35;;;2.38;;
80381;SDS011;69692;55.820;37.490;2023-05-14T06:18:00;6.10;;;2.13;;
80381;SDS011;69692;55.820;37.490;2023-05-14T06:20:26;6.20;;;2.50;;
80381;SDS011;69692;55.820;37.490;2023-05-14T06:22:52;5.80;;;2.05;;
80381;SDS011;69692;55.820;37.490;2023-05-14T06:25:17;5.82;;;1.95;;
80381;SDS011;69692;55.820;37.490;2023-05-14T06:27:43;4.90;;;2.05;;
80381;SDS011;69692;55.820;37.490;2023-05-14T06:30:09;3.42;;;1.85;;
80381;SDS011;69692;55.820;37.490;2023-05-14T06:32:35;3.08;;;1.55;;
80381;SDS011;69692;55.820;37.490;2023-05-14T06:35:01;4.47;;;1.73;;
80381;SDS011;69692;55.820;37.490;2023-05-14T06:37:29;3.58;;;1.98;;
80381;SDS011;69692;55.820;37.490;2023-05-14T06:39:54;5.30;;;2.80;;
80381;SDS011;69692;55.820;37.490;2023-05-14T06:42:20;3.17;;;1.60;;
80381;SDS011;69692;55.820;37.490;2023-05-14T06:44:46;6.45;;;2.20;;
80381;SDS011;69692;55.820;37.490;2023-05-14T06:47:12;4.70;;;1.45;;
80381;SDS011;69692;55.820;37.490;2023-05-14T06:49:37;4.25;;;1.90;;
80381;SDS011;69692;55.820;37.490;2023-05-14T06:52:03;4.50;;;1.73;;
80381;SDS011;69692;55.820;37.490;2023-05-14T06:54:29;3.90;;;1.35;;
80381;SDS011;69692;55.820;37.490;2023-05-14T06:56:55;6.10;;;1.80;;
80381;SDS011;69692;55.820;37.490;2023-05-14T06:59:21;5.00;;;1.65;;
80381;SDS011;69692;55.820;37.490;2023-05-14T07:01:47;2.88;;;1.63;;
80381;SDS011;69692;55.820;37.490;2023-05-14T07:04:13;4.75;;;1.80;;
80381;SDS011;69692;55.820;37.490;2023-05-14T07:06:39;3.25;;;1.90;;
80381;SDS011;69692;55.820;37.490;2023-05-14T07:09:04;5.75;;;2.15;;
80381;SDS011;69692;55.820;37.490;2023-05-14T07:11:31;3.03;;;1.83;;
80381;SDS011;69692;55.820;37.490;2023-05-14T07:13:57;5.82;;;2.40;;
80381;SDS011;69692;55.820;37.490;2023-05-14T07:16:23;3.10;;;1.58;;
80381;SDS011;69692;55.820;37.490;2023-05-14T07:18:50;6.10;;;2.15;;
80381;SDS011;69692;55.820;37.490;2023-05-14T07:21:16;4.38;;;2.20;;
80381;SDS011;69692;55.820;37.490;2023-05-14T07:23:42;2.25;;;1.30;;
80381;SDS011;69692;55.820;37.490;2023-05-14T07:26:08;2.63;;;1.52;;
80381;SDS011;69692;55.820;37.490;2023-05-14T07:28:34;2.63;;;1.50;;
80381;SDS011;69692;55.820;37.490;2023-05-14T07:31:00;3.78;;;1.42;;
80381;SDS011;69692;55.820;37.490;2023-05-14T07:33:26;4.38;;;2.10;;
80381;SDS011;69692;55.820;37.490;2023-05-14T07:35:51;2.72;;;1.70;;
80381;SDS011;69692;55.820;37.490;2023-05-14T07:38:18;4.57;;;1.52;;
80381;SDS011;69692;55.820;37.490;2023-05-14T07:40:47;5.00;;;1.67;;
80381;SDS011;69692;55.820;37.490;2023-05-14T07:43:13;4.05;;;1.98;;
80381;SDS011;69692;55.820;37.490;2023-05-14T07:45:39;5.00;;;1.50;;
80381;SDS011;69692;55.820;37.490;2023-05-14T07:48:04;4.70;;;2.33;;
80381;SDS011;69692;55.820;37.490;2023-05-14T07:50:30;4.90;;;1.95;;
80381;SDS011;69692;55.820;37.490;2023-05-14T07:52:56;5.45;;;1.55;;
80381;SDS011;69692;55.820;37.490;2023-05-14T07:55:22;2.03;;;1.02;;
80381;SDS011;69692;55.820;37.490;2023-05-14T07:57:48;8.63;;;1.80;;
80381;SDS011;69692;55.820;37.490;2023-05-14T08:00:13;1.55;;;1.23;;
80381;SDS011;69692;55.820;37.490;2023-05-14T08:02:41;2.83;;;1.70;;
80381;SDS011;69692;55.820;37.490;2023-05-14T08:05:07;3.00;;;1.55;;
80381;SDS011;69692;55.820;37.490;2023-05-14T08:07:33;5.32;;;2.22;;
80381;SDS011;69692;55.820;37.490;2023-05-14T08:09:59;5.47;;;2.15;;
80381;SDS011;69692;55.820;37.490;2023-05-14T08:12:25;4.10;;;2.17;;
80381;SDS011;69692;55.820;37.490;2023-05-14T08:14:52;6.18;;;1.83;;
80381;SDS011;69692;55.820;37.490;2023-05-14T08:17:18;3.58;;;1.77;;
80381;SDS011;69692;55.820;37.490;2023-05-14T08:19:44;3.58;;;2.00;;
80381;SDS011;69692;55.820;37.490;2023-05-14T08:22:11;4.32;;;1.80;;
80381;SDS011;69692;55.820;37.490;2023-05-14T08:24:36;4.60;;;1.90;;
80381;SDS011;69692;55.820;37.490;2023-05-14T08:27:03;2.80;;;1.60;;
80381;SDS011;69692;55.820;37.490;2023-05-14T08:29:29;5.55;;;1.88;;
80381;SDS011;69692;55.820;37.490;2023-05-14T08:31:54;3.78;;;1.73;;
80381;SDS011;69692;55.820;37.490;2023-05-14T08:34:20;6.28;;;1.75;;
80381;SDS011;69692;55.820;37.490;2023-05-14T08:36:46;4.03;;;2.08;;
80381;SDS011;69692;55.820;37.490;2023-05-14T08:39:12;6.15;;;1.63;;
80381;SDS011;69692;55.820;37.490;2023-05-14T08:41:38;2.10;;;1.50;;
80381;SDS011;69692;55.820;37.490;2023-05-14T08:44:11;3.17;;;1.58;;
80381;SDS011;69692;55.820;37.490;2023-05-14T08:46:38;4.53;;;1.67;;
80381;SDS011;69692;55.820;37.490;2023-05-14T08:51:52;3.95;;;1.40;;
80381;SDS011;69692;55.820;37.490;2023-05-14T08:54:19;4.53;;;1.65;;
80381;SDS011;69692;55.820;37.490;2023-05-14T08:56:48;2.67;;;2.10;;
80381;SDS011;69692;55.820;37.490;2023-05-14T08:59:16;3.13;;;2.00;;
80381;SDS011;69692;55.820;37.490;2023-05-14T09:01:46;4.50;;;2.25;;
80381;SDS011;69692;55.820;37.490;2023-05-14T09:04:18;3.13;;;1.25;;
80381;SDS011;69692;55.820;37.490;2023-05-14T09:06:45;6.05;;;2.00;;
80381;SDS011;69692;55.820;37.490;2023-05-14T09:09:14;2.80;;;1.65;;
80381;SDS011;69692;55.820;37.490;2023-05-14T09:11:50;5.03;;;2.63;;
80381;SDS011;69692;55.820;37.490;2023-05-14T09:14:17;4.85;;;2.22;;
80381;SDS011;69692;55.820;37.490;2023-05-14T09:16:44;8.27;;;1.65;;
80381;SDS011;69692;55.820;37.490;2023-05-14T09:19:11;9.02;;;1.95;;
80381;SDS011;69692;55.820;37.490;2023-05-14T09:21:37;5.88;;;2.00;;
80381;SDS011;69692;55.820;37.490;2023-05-14T09:24:04;3.00;;;2.05;;
80381;SDS011;69692;55.820;37.490;2023-05-14T09:26:31;3.40;;;1.98;;
80381;SDS011;69692;55.820;37.490;2023-05-14T09:28:58;2.50;;;1.75;;
80381;SDS011;69692;55.820;37.490;2023-05-14T09:31:26;2.20;;;1.63;;
80381;SDS011;69692;55.820;37.490;2023-05-14T09:33:56;2.55;;;1.48;;
80381;SDS011;69692;55.820;37.490;2023-05-14T09:36:22;5.05;;;1.90;;
80381;SDS011;69692;55.820;37.490;2023-05-14T09:38:51;5.15;;;2.20;;
80381;SDS011;69692;55.820;37.490;2023-05-14T09:41:20;4.53;;;2.08;;
80381;SDS011;69692;55.820;37.490;2023-05-14T09:43:47;4.00;;;1.38;;
80381;SDS011;69692;55.820;37.490;2023-05-14T09:46:13;3.20;;;1.92;;
80381;SDS011;69692;55.820;37.490;2023-05-14T09:48:40;7.03;;;2.33;;
80381;SDS011;69692;55.820;37.490;2023-05-14T09:51:05;4.00;;;2.28;;
80381;SDS011;69692;55.820;37.490;2023-05-14T09:53:31;4.95;;;1.80;;
80381;SDS011;69692;55.820;37.490;2023-05-14T09:55:58;4.18;;;1.45;;
80381;SDS011;69692;55.820;37.490;2023-05-14T09:58:24;3.42;;;1.70;;
80381;SDS011;69692;55.820;37.490;2023-05-14T10:00:50;4.00;;;1.60;;
80381;SDS011;69692;55.820;37.490;2023-05-14T10:03:18;5.60;;;2.20;;
80381;SDS011;69692;55.820;37.490;2023-05-14T10:05:47;2.63;;;1.70;;
80381;SDS011;69692;55.820;37.490;2023-05-14T10:08:18;5.50;;;1.60;;
80381;SDS011;69692;55.820;37.490;2023-05-14T10:10:47;3.47;;;1.40;;
80381;SDS011;69692;55.820;37.490;2023-05-14T10:13:16;6.97;;;1.67;;
80381;SDS011;69692;55.820;37.490;2023-05-14T10:18:15;2.97;;;1.60;;
80381;SDS011;69692;55.820;37.490;2023-05-14T10:20:52;2.83;;;1.63;;
80381;SDS011;69692;55.820;37.490;2023-05-14T10:23:29;2.20;;;1.40;;
80381;SDS011;69692;55.820;37.490;2023-05-14T10:25:55;5.25;;;1.75;;
80381;SDS011;69692;55.820;37.490;2023-05-14T10:28:24;4.50;;;2.17;;
80381;SDS011;69692;55.820;37.490;2023-05-14T10:30:50;4.22;;;1.95;;
80381;SDS011;69692;55.820;37.490;2023-05-14T10:33:18;2.83;;;1.90;;
80381;SDS011;69692;55.820;37.490;2023-05-14T10:35:58;2.65;;;1.77;;
80381;SDS011;69692;55.820;37.490;2023-05-14T10:38:27;5.07;;;2.10;;
80381;SDS011;69692;55.820;37.490;2023-05-14T10:41:10;4.97;;;1.48;;
80381;SDS011;69692;55.820;37.490;2023-05-14T10:43:42;4.22;;;1.33;;
80381;SDS011;69692;55.820;37.490;2023-05-14T10:46:09;2.33;;;1.40;;
80381;SDS011;69692;55.820;37.490;2023-05-14T10:48:36;3.22;;;1.92;;
80381;SDS011;69692;55.820;37.490;2023-05-14T10:51:09;3.70;;;1.90;;
80381;SDS011;69692;55.820;37.490;2023-05-14T10:53:36;2.22;;;1.50;;
80381;SDS011;69692;55.820;37.490;2023-05-14T10:56:05;3.45;;;1.20;;
80381;SDS011;69692;55.820;37.490;2023-05-14T10:58:36;2.03;;;1.55;;
80381;SDS011;69692;55.820;37.490;2023-05-14T11:01:06;4.32;;;1.65;;
80381;SDS011;69692;55.820;37.490;2023-05-14T11:03:41;4.05;;;1.40;;
80381;SDS011;69692;55.820;37.490;2023-05-14T11:06:09;3.45;;;1.60;;
80381;SDS011;69692;55.820;37.490;2023-05-14T11:08:36;3.88;;;1.80;;
80381;SDS011;69692;55.820;37.490;2023-05-14T11:11:02;4.45;;;1.60;;
80381;SDS011;69692;55.820;37.490;2023-05-14T11:13:30;5.53;;;1.85;;
80381;SDS011;69692;55.820;37.490;2023-05-14T11:15:57;7.20;;;1.55;;
80381;SDS011;69692;55.820;37.490;2023-05-14T11:18:29;4.10;;;1.60;;
80381;SDS011;69692;55.820;37.490;2023-05-14T11:21:02;4.63;;;1.60;;
80381;SDS011;69692;55.820;37.490;2023-05-14T11:23:28;4.10;;;1.50;;
80381;SDS011;69692;55.820;37.490;2023-05-14T11:25:54;4.82;;;1.65;;
80381;SDS011;69692;55.820;37.490;2023-05-14T11:28:21;4.30;;;1.52;;
80381;SDS011;69692;55.820;37.490;2023-05-14T11:30:48;2.67;;;1.92;;
80381;SDS011;69692;55.820;37.490;2023-05-14T11:33:15;3.22;;;1.50;;
80381;SDS011;69692;55.820;37.490;2023-05-14T11:35:42;7.43;;;2.10;;
80381;SDS011;69692;55.820;37.490;2023-05-14T11:38:18;5.72;;;1.58;;
80381;SDS011;69692;55.820;37.490;2023-05-14T11:40:55;3.88;;;1.92;;
80381;SDS011;69692;55.820;37.490;2023-05-14T11:43:21;4.40;;;1.27;;
80381;SDS011;69692;55.820;37.490;2023-05-14T11:45:53;4.28;;;1.38;;
80381;SDS011;69692;55.820;37.490;2023-05-14T11:48:20;2.88;;;2.03;;
80381;SDS011;69692;55.820;37.490;2023-05-14T11:50:50;2.78;;;2.47;;
80381;SDS011;69692;55.820;37.490;2023-05-14T11:55:52;9.30;;;1.77;;
80381;SDS011;69692;55.820;37.490;2023-05-14T11:58:19;3.42;;;1.75;;
80381;SDS011;69692;55.820;37.490;2023-05-14T12:00:45;6.80;;;1.33;;
80381;SDS011;69692;55.820;37.490;2023-05-14T12:03:15;4.28;;;1.33;;
80381;SDS011;69692;55.820;37.490;2023-05-14T12:05:53;4.53;;;1.85;;
80381;SDS011;69692;55.820;37.490;2023-05-14T12:08:25;5.00;;;1.70;;
80381;SDS011;69692;55.820;37.490;2023-05-14T12:10:52;2.65;;;1.23;;
80381;SDS011;69692;55.820;37.490;2023-05-14T12:13:18;3.55;;;1.63;;
80381;SDS011;69692;55.820;37.490;2023-05-14T12:15:45;3.00;;;1.50;;
80381;SDS011;69692;55.820;37.490;2023-05-14T12:18:21;3.63;;;1.50;;
80381;SDS011;69692;55.820;37.490;2023-05-14T12:20:48;2.65;;;1.75;;
80381;SDS011;69692;55.820;37.490;2023-05-14T12:23:15;4.40;;;1.33;;
80381;SDS011;69692;55.820;37.490;2023-05-14T12:25:50;7.47;;;1.52;;
80381;SDS011;69692;55.820;37.490;2023-05-14T12:28:17;2.60;;;1.02;;
80381;SDS011;69692;55.820;37.490;2023-05-14T12:30:44;2.67;;;1.33;;
80381;SDS011;69692;55.820;37.490;2023-05-14T12:33:10;3.83;;;1.60;;
80381;SDS011;69692;55.820;37.490;2023-05-14T12:35:36;3.45;;;1.60;;
80381;SDS011;69692;55.820;37.490;2023-05-14T12:38:02;15.70;;;2.70;;
80381;SDS011;69692;55.820;37.490;2023-05-14T12:40:28;2.35;;;1.23;;
80381;SDS011;69692;55.820;37.490;2023-05-14T12:42:53;5.65;;;1.48;;
80381;SDS011;69692;55.820;37.490;2023-05-14T12:45:19;2.80;;;1.80;;
80381;SDS011;69692;55.820;37.490;2023-05-14T12:47:45;3.72;;;1.73;;
80381;SDS011;69692;55.820;37.490;2023-05-14T12:50:11;7.00;;;1.55;;
80381;SDS011;69692;55.820;37.490;2023-05-14T12:52:37;4.85;;;1.88;;
80381;SDS011;69692;55.820;37.490;2023-05-14T12:55:02;7.57;;;1.83;;
80381;SDS011;69692;55.820;37.490;2023-05-14T12:57:29;3.08;;;1.35;;
80381;SDS011;69692;55.820;37.490;2023-05-14T12:59:55;3.17;;;1.40;;
80381;SDS011;69692;55.820;37.490;2023-05-14T13:02:21;7.30;;;1.50;;
80381;SDS011;69692;55.820;37.490;2023-05-14T13:04:47;3.20;;;1.20;;
80381;SDS011;69692;55.820;37.490;2023-05-14T13:07:12;33.08;;;3.75;;
80381;SDS011;69692;55.820;37.490;2023-05-14T13:09:38;3.83;;;1.33;;
80381;SDS011;69692;55.820;37.490;2023-05-14T13:12:04;2.72;;;1.30;;
80381;SDS011;69692;55.820;37.490;2023-05-14T13:14:30;5.68;;;1.48;;
80381;SDS011;69692;55.820;37.490;2023-05-14T13:16:56;3.90;;;1.85;;
80381;SDS011;69692;55.820;37.490;2023-05-14T13:19:22;3.30;;;1.85;;
80381;SDS011;69692;55.820;37.490;2023-05-14T13:21:47;6.00;;;1.38;;
80381;SDS011;69692;55.820;37.490;2023-05-14T13:24:13;4.40;;;1.83;;
80381;SDS011;69692;55.820;37.490;2023-05-14T13:26:39;3.53;;;1.50;;
80381;SDS011;69692;55.820;37.490;2023-05-14T13:29:05;4.40;;;1.83;;
80381;SDS011;69692;55.820;37.490;2023-05-14T13:31:31;3.17;;;1.23;;
80381;SDS011;69692;55.820;37.490;2023-05-14T13:33:56;5.18;;;1.90;;
80381;SDS011;69692;55.820;37.490;2023-05-14T13:36:23;4.50;;;2.08;;
80381;SDS011;69692;55.820;37.490;2023-05-14T13:38:49;2.70;;;2.05;;
80381;SDS011;69692;55.820;37.490;2023-05-14T13:41:15;6.00;;;1.90;;
80381;SDS011;69692;55.820;37.490;2023-05-14T13:43:40;3.30;;;1.80;;
80381;SDS011;69692;55.820;37.490;2023-05-14T13:46:06;3.47;;;1.73;;
80381;SDS011;69692;55.820;37.490;2023-05-14T13:48:32;2.80;;;1.70;;
80381;SDS011;69692;55.820;37.490;2023-05-14T13:50:58;3.70;;;1.40;;
80381;SDS011;69692;55.820;37.490;2023-05-14T13:53:24;3.13;;;1.98;;
80381;SDS011;69692;55.820;37.490;2023-05-14T13:55:50;3.83;;;2.08;;
80381;SDS011;69692;55.820;37.490;2023-05-14T13:58:25;4.47;;;1.70;;
80381;SDS011;69692;55.820;37.490;2023-05-14T14:00:51;4.15;;;1.77;;
80381;SDS011;69692;55.820;37.490;2023-05-14T14:03:17;5.00;;;1.50;;
80381;SDS011;69692;55.820;37.490;2023-05-14T14:05:43;3.28;;;1.67;;
80381;SDS011;69692;55.820;37.490;2023-05-14T14:08:08;2.30;;;1.52;;
80381;SDS011;69692;55.820;37.490;2023-05-14T14:10:34;3.13;;;1.77;;
80381;SDS011;69692;55.820;37.490;2023-05-14T14:13:00;4.18;;;1.83;;
80381;SDS011;69692;55.820;37.490;2023-05-14T14:15:26;5.30;;;1.67;;
80381;SDS011;69692;55.820;37.490;2023-05-14T14:17:52;4.22;;;1.50;;
80381;SDS011;69692;55.820;37.490;2023-05-14T14:20:18;3.90;;;1.88;;
80381;SDS011;69692;55.820;37.490;2023-05-14T14:22:44;2.10;;;1.67;;
80381;SDS011;69692;55.820;37.490;2023-05-14T14:25:10;3.15;;;1.98;;
80381;SDS011;69692;55.820;37.490;2023-05-14T14:27:37;4.63;;;1.58;;
80381;SDS011;69692;55.820;37.490;2023-05-14T14:30:09;4.45;;;1.13;;
80381;SDS011;69692;55.820;37.490;2023-05-14T14:32:40;5.15;;;1.50;;
80381;SDS011;69692;55.820;37.490;2023-05-14T14:35:12;5.47;;;1.48;;
80381;SDS011;69692;55.820;37.490;2023-05-14T14:37:39;2.00;;;1.33;;
80381;SDS011;69692;55.820;37.490;2023-05-14T14:40:06;5.22;;;3.10;;
80381;SDS011;69692;55.820;37.490;2023-05-14T14:42:34;4.55;;;1.80;;
80381;SDS011;69692;55.820;37.490;2023-05-14T14:45:01;3.95;;;1.70;;
80381;SDS011;69692;55.820;37.490;2023-05-14T14:47:29;2.50;;;1.70;;
80381;SDS011;69692;55.820;37.490;2023-05-14T14:49:55;7.15;;;1.80;;